Aérodrome :
LOGIN :

S'inscrire | Disclaimer

   EN    FR    IT 

 










Légende :    VFR   VFR Marginal   IFR   IFR Intensif   IFR Très Intensif
Visi : 
Plafond : 
>= 8 km
>= 3000ft
5 à 8 km
1000 à 3000 ft
1500m à 5 km
500 à 1000 ft
800 à 1500m
200 à 500 ft
< 800m
< 200 ft
Symboles :   Orages  Brouillard  Fortes neiges  Fortes précipitations  Vent > 20 kt
SIGMETs :   Divers  Orages  Givrage  Turbulence  Onde Orograph.  Cendres Volcan.






- Altitude de l'aérodrome : 1708 ft
- Code IATA : SJJ


LQSA - Sarajevo

DERNIER METAR :
  • 232000Z 21006KT 170V260 9999 FEW050 07/03 Q0999 NOSIG

METARs EXPIRÉS :
  • 231930Z VRB03KT 9999 SCT050 05/04 Q0998 NOSIG
  • 231900Z 25003KT 150V300 9999 SCT055 06/04 Q0999 NOSIG
  • 231830Z 12005KT 010V180 9999 SCT060 08/03 Q0998 NOSIG
  • 231800Z VRB05KT 9999 FEW035 SCT060 08/03 Q0998 NOSIG
  • 231730Z 16009G19KT 130V240 9999 FEW035 SCT060 08/03 Q0998 NOSIG

TAF TAF LQSA
Valide du 23 à 18h jusqu'au 24 à 18h UTC


231700Z 2318/2418 13012KT 9999 -RA BKN050 TX10/2412Z TN05/2401Z
TEMPO 2403/2418 16018G30KT
BECMG 2415/2417 3000 RA BKN010 BKN030
PROB40
TEMPO 2416/2418 VRB18KT TSRA SCT010 FEW030CB BKN040



MET'MAP, la Météo Aéronautique d'un coup d'oeil ! - Copyright ORBIFLY Décembre 2007 - Disclaimer

ORBIFLY MET'MAP TEAM :

Programmation & Développement : Alexandra Zaïnal
Sur une idée originale de : Baudouin d'Aumeries
Assistance à la programmation : Marc-Olivier Méhu
Soutien technique & logistique : Manuel Goepfert

Contact : metmap@orbifly.com




SOURCES & CREDITS :

   NOAA